Historyczne dane pomiarowe

Dodano dane terminowe – wersja testowa.

Dane z okresu 1951-2019

Wersja bazy: 1.34 [2019-03-16, lista zmian], aktualizacja planowana na 2019-04-15

Dane meteo z obszaru Polski uzyskane na podstawie danych udostępnionych przez Instytut Meteorologii i Gospodarki Wodnej – Państwowy Instytut Badawczy.

 

Wybierz Datę:    

       

TemperaturaWilgotnośćWiatrCiśnienieOpadyŚniegCzas trwania zjawisk
 Stacja t tx tn tng RH VA  wxwx mslp ppp RRR   cm mm wxwxwxwxwxwxwx
1973-08-13 12.2 19.2 7.9- 70.0- 3.3 2.0---- 0.0------------
1973-08-14 12.5 20.2 4.4- 66.8- 1.7 0.7---- 0.0------------
1973-08-15 13.2 21.8 5.0- 70.0- 0.7 0.0---- 0.0------------
1973-08-16 15.0 24.2 7.0- 68.5- 0.3 0.7---- 0.0------------
1973-08-17 16.9 24.7 9.9- 63.5- 0.7 0.7---- 0.0------------
1973-08-18 18.1 26.8 7.9- 70.3- 1.7 0.0---- 0.0------------
1973-08-19 14.4 21.9 10.8- 69.0- 1.7 0.7---- 0.0------------
1973-08-20 12.7 19.6 6.8- 71.8- 1.0 2.0---- 6.5------------
1973-08-21 11.8 18.1 9.8- 66.8- 2.3 4.0---- 0.0------------
1973-08-22 7.9 17.2 3.1- 70.0- 4.0 1.3---- 0.8------------
1973-08-23 7.6 17.2 2.1- 60.8- 3.0 2.0---- 0.0------------
1973-08-24 10.3 20.1 4.9- 58.5- 1.0 4.0---- 0.0------------
1973-08-25 8.7 17.0 5.6- 67.8- 3.7 2.0---- 0.0------------
1973-08-26 5.5 15.8 0.0- 59.8- 1.3 0.0---- 0.0------------
1973-08-27 9.7 19.0 3.0- 52.5- 4.3 2.0---- 0.0------------
1973-08-28 11.6 21.2 3.0- 61.0- 2.0 0.7---- 0.0------------
1973-08-29 13.4 22.2 2.0- 62.0- 1.0 0.7---- 0.0------------
1973-08-30 14.5 21.9 3.0- 53.5- 1.3 0.0---- 0.0------------
1973-08-31 13.5 23.8 5.9- 55.8- 1.3 0.7---- 8.5------------
1973-09-01 9.2 16.6 6.3- 81.8- 6.0 4.0---- 1.3------------
1973-09-02 10.8 18.9 5.2- 75.0- 5.7 2.7---- 0.0------------
1973-09-03 9.5 17.8 5.2- 69.0- 4.7 7.3---- 0.0------------
1973-09-04 11.1 19.0 6.4- 68.3- 3.3 4.0---- 0.0------------
1973-09-05 11.1 20.0 2.4- 73.5- 3.0 2.0---- 6.5------------
1973-09-06 15.2 23.2 12.1- 65.3- 1.0 2.0---- 0.0------------
1973-09-07 11.6 20.9 2.9- 70.3- 5.0 4.7---- 0.0------------
1973-09-08 13.0 20.7 8.8- 71.0- 3.0 2.7---- 0.0------------
1973-09-09 12.1 19.0 7.1- 79.5- 3.7 2.0---- 1.2------------
1973-09-10 9.4 15.0 4.7- 67.8- 3.0 3.3---- 0.8------------
1973-09-11 3.0 12.1 0.0- 72.5- 2.3 2.0---- 4.0------------
2825.1 ms

 

Źródłem pochodzenia danych jest Instytut Meteorologii i Gospodarki Wodnej – Państwowy Instytut Badawczy. Dane Instytutu Meteorologii i Gospodarki Wodnej – Państwowego Instytutu Badawczego zostały przetworzone.

Dane źródłowe można odnaleźć na stronie https://dane.imgw.pl